Flight Track Log - Related Links

Times and Time Zones

All times are in EDT time to prevent confusion due to time zone crossing. See the SWA1021 flight status page for this flight to view local times or setup timezone preferences in your user account.

Time Position Orientation Groundspeed Altitude Reporting Facility
EDT Latitude Longitude Course Direction KTS MPH feet Rate Location/Type
Mon 10:10:52 AM 37.7333 -122.2833 104° East 192 221 2,900  Level Northern Cal TRACON
Mon 10:11:46 AM 37.7500 -122.3333 293° West 217 250 5,800 2,895 Climbing Northern Cal TRACON
Mon 10:12:46 AM 37.7167 -122.4167 243° Southwest 292 336 8,400 2,350 Climbing Northern Cal TRACON
Mon 10:13:46 AM 37.6333 -122.4333 189° South 350 403 10,500 2,132 Climbing Northern Cal TRACON
Mon 10:14:02 AM 37.6031 -122.4247 167° South 360 414 11,100 2,026 Climbing Oakland Center
Mon 10:15:03 AM 37.5017 -122.3628 154° Southeast 419 482 13,100 2,311 Climbing Oakland Center
Mon 10:16:00 AM 37.2492 -122.2795 104° East  Level FlightAware Approximate
Mon 10:16:04 AM 37.4225 -122.2536 132° Southeast 427 491 15,800  Level Oakland Center
Mon 10:17:05 AM 37.3378 -122.1411 133° Southeast 442 509 18,600 2,410 Climbing Oakland Center
Mon 10:18:06 AM 37.2508 -122.0258 133° Southeast 455 524 20,700 2,066 Climbing Oakland Center
Mon 10:19:07 AM 37.1606 -121.9078 134° Southeast 468 539 22,800 1,140 Climbing Oakland Center
Mon 10:20:07 AM 37.0664 -121.7839 134° Southeast 489 563 23,000 99 Climbing Oakland Center
Mon 10:21:08 AM 36.9683 -121.6597 135° Southeast 501 577 23,000  Level Oakland Center
Mon 10:22:09 AM 36.8725 -121.5333 133° Southeast 503 579 23,000  Level Oakland Center
Mon 10:23:10 AM 36.7744 -121.4078 134° Southeast 487 560 23,000  Level Oakland Center
Mon 10:24:11 AM 36.6808 -121.2861 134° Southeast 486 559 23,000  Level Oakland Center
Mon 10:25:12 AM 36.5856 -121.1639 134° Southeast 492 566 23,000  Level Oakland Center
Mon 10:26:13 AM 36.4903 -121.0406 134° Southeast 496 571 23,000  Level Oakland Center
Mon 10:27:14 AM 36.3933 -120.9164 134° Southeast 500 575 23,000  Level Oakland Center
Mon 10:28:15 AM 36.2961 -120.7897 134° Southeast 506 582 23,000  Level Oakland Center
Mon 10:29:16 AM 36.1967 -120.6669 135° Southeast 505 581 23,000  Level Oakland Center
Mon 10:30:17 AM 36.0783 -120.5164 134° Southeast 508 585 23,000  Level Oakland Center
Mon 10:31:18 AM 35.9786 -120.3906 134° Southeast 509 586 23,000  Level Oakland Center
Mon 10:32:19 AM 35.8797 -120.2672 135° Southeast 505 581 23,000  Level Oakland Center
Mon 10:33:20 AM 35.7817 -120.1456 135° Southeast 499 574 23,000  Level Oakland Center
Mon 10:34:21 AM 35.6833 -120.0250 135° Southeast 495 570 23,000  Level Oakland Center
Mon 10:35:22 AM 35.5744 -119.9161 141° Southeast 501 577 23,000  Level Oakland Center
Mon 10:36:23 AM 35.4614 -119.8183 145° Southeast 493 567 23,000  Level Oakland Center
Mon 10:37:24 AM 35.3469 -119.7206 145° Southeast 498 573 23,000  Level Oakland Center
Mon 10:38:25 AM 35.2342 -119.6233 145° Southeast 495 570 23,000  Level Oakland Center
Mon 10:39:26 AM 35.1214 -119.5264 145° Southeast 493 567 23,000  Level Oakland Center
Mon 10:40:29 AM 35.0092 -119.4303 145° Southeast 494 568 23,000  Level Los Angeles Center
Mon 10:41:31 AM 34.8969 -119.3347 145° Southeast 493 567 23,000  Level Los Angeles Center
Mon 10:42:33 AM 34.7850 -119.2403 145° Southeast 489 563 23,000 -780 Level Los Angeles Center
Mon 10:43:34 AM 34.6575 -119.1322 145° Southeast 467 537 21,400 -1,610 Descending Los Angeles Center
Mon 10:44:36 AM 34.5661 -119.0600 147° Southeast 447 514 19,700 -1,765 Descending Los Angeles Center
Mon 10:45:50 AM 34.4686 -118.9775 145° Southeast 431 496 17,400 -2,118 Descending Los Angeles Center
Mon 10:46:52 AM 34.3369 -118.8739 147° Southeast 396 456 14,900 -2,098 Descending Los Angeles Center
Mon 10:47:53 AM 34.2364 -118.8367 163° South 378 435 13,100 -1,659 Descending Los Angeles Center
Mon 10:48:55 AM 34.1381 -118.8008 163° South 368 423 11,500 -1,306 Descending Los Angeles Center
Mon 10:49:57 AM 34.0447 -118.7456 154° Southeast 370 426 10,400 -780 Descending Los Angeles Center
Mon 10:50:58 AM 34.0261 -118.6336 101° East 310 357 9,900 -585 Descending Los Angeles Center
Mon 10:52:00 AM 34.0206 -118.5628 95° East 283 326 9,200 -1,016 Descending Los Angeles Center
Mon 10:53:02 AM 34.0100 -118.4592 97° East 270 311 7,800 -1,258 Descending Los Angeles Center
Mon 10:54:04 AM 34.0172 -118.3675 85° East 247 284 6,600 -1,268 Descending Los Angeles Center
Mon 10:55:05 AM 34.0200 -118.2892 88° East 236 272 5,200 -1,171 Descending Los Angeles Center
Mon 10:56:07 AM 34.0147 -118.2197 95° East 227 261 4,200 -1,113 Descending Los Angeles Center
Mon 10:57:09 AM 33.9642 -118.2111 172° South 211 243 2,900 -968 Descending Los Angeles Center
Mon 10:58:11 AM 33.9669 -118.2711 273° West 193 222 2,200 -677 Descending Los Angeles Center
Mon 10:59:13 AM 33.9608 -118.3228 262° West 173 199 1,500 -634 Descending Los Angeles Center
Mon 11:00:14 AM 33.9575 -118.3611 264° West 138 159 900 -590 Descending Los Angeles Center
Mon 11:03:00 AM 33.9333 -118.4000 228° Southwest  Level FlightAware Approximate
Mon 11:10:00 AM 33.9425 -118.4081 228° Southwest  Level Estimated

Login

Don't have an account? Register now (free) for customized features, flight alerts, and more!